createdAt,value
2023-03-22T00:00:30.365Z,81.73
2023-03-22T00:03:17.939Z,83.23
2023-03-22T00:05:46.099Z,94.20
2023-03-22T00:08:13.926Z,87.77
2023-03-22T00:10:42.212Z,84.00
2023-03-22T00:13:11.610Z,87.67
2023-03-22T00:15:39.565Z,90.23
2023-03-22T00:18:07.140Z,83.80
2023-03-22T00:20:37.695Z,79.70
2023-03-22T00:23:05.790Z,87.13
2023-03-22T00:25:33.271Z,82.10
2023-03-22T00:28:00.486Z,90.50
2023-03-22T00:30:28.116Z,91.17
2023-03-22T00:32:55.353Z,89.50
2023-03-22T00:35:22.869Z,97.47
2023-03-22T00:37:51.717Z,91.03
2023-03-22T00:40:19.487Z,93.83
2023-03-22T00:42:46.856Z,89.83
2023-03-22T00:45:14.476Z,82.13
2023-03-22T00:47:41.947Z,93.80
2023-03-22T00:50:10.011Z,97.30
2023-03-22T00:52:37.306Z,99.30
2023-03-22T00:55:05.535Z,94.07
2023-03-22T00:57:33.558Z,94.13
2023-03-22T01:00:08.215Z,94.20
2023-03-22T01:02:35.547Z,88.43
2023-03-22T01:05:03.453Z,85.10
2023-03-22T01:07:31.072Z,95.40
2023-03-22T01:09:58.663Z,91.60
2023-03-22T01:12:25.989Z,87.60
2023-03-22T01:14:53.432Z,93.53
2023-03-22T01:17:20.850Z,95.30
2023-03-22T01:19:48.452Z,85.47
2023-03-22T01:22:15.844Z,92.77
2023-03-22T01:24:43.649Z,91.10
2023-03-22T01:27:11.568Z,90.67
2023-03-22T01:29:39.035Z,88.37
2023-03-22T01:32:06.570Z,95.10
2023-03-22T01:34:34.127Z,94.37
2023-03-22T01:37:02.891Z,90.03
2023-03-22T01:39:32.240Z,102.33
2023-03-22T01:42:03.756Z,96.23
2023-03-22T01:44:31.818Z,101.97
2023-03-22T01:47:01.382Z,96.57
2023-03-22T01:49:35.891Z,100.47
2023-03-22T01:52:11.798Z,96.97
2023-03-22T01:54:53.487Z,97.27
2023-03-22T01:57:33.581Z,96.07
2023-03-22T02:00:04.128Z,101.50
2023-03-22T02:03:11.349Z,96.40
2023-03-22T02:05:44.850Z,104.50
2023-03-22T02:08:15.144Z,102.63
2023-03-22T02:11:03.278Z,97.93
2023-03-22T02:13:53.840Z,100.73
2023-03-22T02:17:09.196Z,94.07
2023-03-22T02:20:13.907Z,99.80
2023-03-22T02:22:41.848Z,94.43
2023-03-22T02:25:30.417Z,100.17
2023-03-22T02:28:23.921Z,90.90
2023-03-22T02:31:19.971Z,90.60
2023-03-22T02:34:15.676Z,99.87
2023-03-22T02:37:18.010Z,95.93
2023-03-22T02:39:54.113Z,103.83
2023-03-22T02:42:40.307Z,89.80
2023-03-22T02:45:16.259Z,91.03
2023-03-22T02:48:12.999Z,92.47
2023-03-22T02:50:56.770Z,104.93
2023-03-22T02:53:42.994Z,93.07
2023-03-22T02:56:26.206Z,91.80
2023-03-22T02:59:04.515Z,88.57
2023-03-22T03:01:43.927Z,90.97
2023-03-22T03:04:19.836Z,90.77
2023-03-22T03:06:51.969Z,90.17
2023-03-22T03:09:20.670Z,92.20
2023-03-22T03:11:51.354Z,91.33
2023-03-22T03:14:23.202Z,106.10
2023-03-22T03:17:02.943Z,93.77
2023-03-22T03:20:12.251Z,90.87
2023-03-22T03:23:28.806Z,96.67
2023-03-22T03:26:36.995Z,100.20
2023-03-22T03:29:17.236Z,88.27
2023-03-22T03:32:17.479Z,94.23
2023-03-22T03:34:49.664Z,90.40
2023-03-22T03:37:24.816Z,93.27
2023-03-22T03:40:09.092Z,98.67
2023-03-22T03:42:41.975Z,94.07
2023-03-22T03:45:10.626Z,101.13
2023-03-22T03:47:39.056Z,100.27
2023-03-22T03:50:07.673Z,89.17
2023-03-22T03:52:34.974Z,94.60
2023-03-22T03:55:02.546Z,102.93
2023-03-22T03:57:33.481Z,110.73
2023-03-22T04:00:01.318Z,100.67
2023-03-22T04:02:47.215Z,110.70
2023-03-22T04:05:34.998Z,108.83
2023-03-22T04:08:02.323Z,115.87
2023-03-22T04:10:30.392Z,112.20
2023-03-22T04:12:57.826Z,113.07
2023-03-22T04:15:26.086Z,114.47
2023-03-22T04:17:57.333Z,122.53
2023-03-22T04:20:28.108Z,109.73
2023-03-22T04:22:55.768Z,118.07
2023-03-22T04:25:23.380Z,110.20
2023-03-22T04:28:00.664Z,117.20
2023-03-22T04:30:30.907Z,120.83
2023-03-22T04:33:01.424Z,118.03
2023-03-22T04:35:57.404Z,130.90
2023-03-22T04:38:31.338Z,119.97
2023-03-22T04:40:58.961Z,120.97
2023-03-22T04:43:39.614Z,129.17
2023-03-22T04:46:12.881Z,127.77
2023-03-22T04:48:48.205Z,127.73
2023-03-22T04:51:17.644Z,123.13
2023-03-22T04:54:11.364Z,122.63
2023-03-22T04:56:42.176Z,137.23
2023-03-22T04:59:10.990Z,130.70
2023-03-22T05:01:40.766Z,138.97
2023-03-22T05:04:13.077Z,140.30
2023-03-22T05:06:41.544Z,129.80
2023-03-22T05:09:16.547Z,130.77
2023-03-22T05:11:44.552Z,137.93
2023-03-22T05:14:24.792Z,138.40
2023-03-22T05:16:52.865Z,138.00
2023-03-22T05:19:22.531Z,134.10
2023-03-22T05:21:58.229Z,134.83
2023-03-22T05:24:37.143Z,152.23
2023-03-22T05:27:05.926Z,143.70
2023-03-22T05:29:37.072Z,140.67
2023-03-22T05:32:18.421Z,130.23
2023-03-22T05:34:48.522Z,151.23
2023-03-22T05:37:24.552Z,134.90
2023-03-22T05:39:55.315Z,129.70
2023-03-22T05:42:28.868Z,138.50
2023-03-22T05:44:57.294Z,134.87
2023-03-22T05:47:24.969Z,138.80
2023-03-22T05:49:58.907Z,131.43
2023-03-22T05:52:28.441Z,133.40
2023-03-22T05:55:22.395Z,130.27
2023-03-22T05:57:54.873Z,136.03
2023-03-22T06:00:23.931Z,126.60
2023-03-22T06:03:18.465Z,138.13
2023-03-22T06:05:54.856Z,144.27
2023-03-22T06:08:31.788Z,139.23
2023-03-22T06:11:00.459Z,129.87
2023-03-22T06:13:28.217Z,123.87
2023-03-22T06:15:56.115Z,127.23
2023-03-22T06:18:26.467Z,144.10
2023-03-22T06:21:02.271Z,132.87
2023-03-22T06:23:30.101Z,122.77
2023-03-22T06:25:57.515Z,120.90
2023-03-22T06:28:29.849Z,112.87
2023-03-22T06:30:58.560Z,118.83
2023-03-22T06:33:45.536Z,117.80
2023-03-22T06:36:27.371Z,108.33
2023-03-22T06:39:05.302Z,119.97
2023-03-22T06:41:33.492Z,121.90
2023-03-22T06:44:02.983Z,122.00
2023-03-22T06:46:44.569Z,121.37
2023-03-22T06:49:29.481Z,122.50
2023-03-22T06:51:58.508Z,120.57
2023-03-22T06:54:26.241Z,113.57
2023-03-22T06:56:53.920Z,114.33
2023-03-22T06:59:22.013Z,103.53
2023-03-22T07:01:49.672Z,109.07
2023-03-22T07:04:17.499Z,104.70
2023-03-22T07:06:47.588Z,109.10
2023-03-22T07:09:15.484Z,105.37
2023-03-22T07:11:42.951Z,103.50
2023-03-22T07:14:10.831Z,110.03
2023-03-22T07:17:16.645Z,104.87
2023-03-22T07:19:45.154Z,106.33
2023-03-22T07:22:13.695Z,107.20
2023-03-22T07:24:55.618Z,110.77
2023-03-22T07:27:24.695Z,110.47
2023-03-22T07:29:52.766Z,110.43
2023-03-22T07:32:20.721Z,103.10
2023-03-22T07:35:02.186Z,104.27
2023-03-22T07:37:29.512Z,93.93
2023-03-22T07:39:57.128Z,96.60
2023-03-22T07:42:28.082Z,92.07
2023-03-22T07:45:14.518Z,91.67
2023-03-22T07:47:45.367Z,92.93
2023-03-22T07:50:19.539Z,90.30
2023-03-22T07:52:51.537Z,86.23
2023-03-22T07:55:19.588Z,85.83
2023-03-22T07:57:47.254Z,84.77
2023-03-22T08:00:16.171Z,82.17
2023-03-22T08:02:46.498Z,74.87
2023-03-22T08:05:30.520Z,80.93
2023-03-22T08:08:02.230Z,77.97
2023-03-22T08:10:31.790Z,71.13
2023-03-22T08:12:59.470Z,74.43
2023-03-22T08:15:28.270Z,70.83
2023-03-22T08:17:58.180Z,76.37
2023-03-22T08:20:34.517Z,68.20
2023-03-22T08:23:11.450Z,69.80
2023-03-22T08:25:57.400Z,72.50
2023-03-22T08:28:24.799Z,73.40
2023-03-22T08:30:52.547Z,83.20
2023-03-22T08:33:23.850Z,68.17
2023-03-22T08:35:52.896Z,71.83
2023-03-22T08:38:21.165Z,77.60
2023-03-22T08:40:53.606Z,80.50
2023-03-22T08:43:24.388Z,81.17
2023-03-22T08:45:53.068Z,73.63
2023-03-22T08:48:21.887Z,78.60
2023-03-22T08:51:08.162Z,74.37
2023-03-22T08:53:58.901Z,77.67
2023-03-22T08:56:45.581Z,72.60
2023-03-22T08:59:42.147Z,68.87
2023-03-22T09:02:30.310Z,74.40
2023-03-22T09:04:58.895Z,71.43
2023-03-22T09:07:28.351Z,76.57
2023-03-22T09:10:05.194Z,69.47
2023-03-22T09:12:35.392Z,60.40
2023-03-22T09:15:03.318Z,62.13
2023-03-22T09:17:32.042Z,61.23
2023-03-22T09:20:11.413Z,63.17
2023-03-22T09:22:42.727Z,61.60
2023-03-22T09:25:13.006Z,59.13
2023-03-22T09:27:43.724Z,58.27
2023-03-22T09:30:11.936Z,55.73
2023-03-22T09:32:40.569Z,58.43
2023-03-22T09:35:09.040Z,58.93
2023-03-22T09:37:53.410Z,51.23
2023-03-22T09:40:25.328Z,50.17
2023-03-22T09:42:57.714Z,50.70
2023-03-22T09:45:41.948Z,55.20
2023-03-22T09:48:36.587Z,53.03
2023-03-22T09:51:06.138Z,50.20
2023-03-22T09:53:34.246Z,45.37
2023-03-22T09:56:04.690Z,47.73
2023-03-22T09:58:43.168Z,48.37
2023-03-22T10:01:10.830Z,46.03
2023-03-22T10:03:47.648Z,46.57
2023-03-22T10:06:19.148Z,47.20
2023-03-22T10:08:46.718Z,43.13
2023-03-22T10:11:51.536Z,41.40
2023-03-22T10:14:34.369Z,36.83
2023-03-22T10:17:07.160Z,42.20
2023-03-22T10:19:49.930Z,40.43
2023-03-22T10:22:19.616Z,40.97
2023-03-22T10:24:51.092Z,39.27
2023-03-22T10:27:20.697Z,43.10
2023-03-22T10:30:22.978Z,34.77
2023-03-22T10:33:04.079Z,36.03
2023-03-22T10:35:32.354Z,37.27
2023-03-22T10:38:03.917Z,37.17
2023-03-22T10:40:36.490Z,33.73
2023-03-22T10:43:10.241Z,41.63
2023-03-22T10:45:38.531Z,38.13
2023-03-22T10:48:14.984Z,40.30
2023-03-22T10:50:45.738Z,34.00
2023-03-22T10:53:21.297Z,37.13
2023-03-22T10:55:48.935Z,35.40
2023-03-22T10:58:19.376Z,30.42
2023-03-22T11:01:14.778Z,26.90
2023-03-22T11:03:44.761Z,28.30
2023-03-22T11:06:15.193Z,26.38
2023-03-22T11:08:45.834Z,26.08
2023-03-22T11:11:38.940Z,31.25
2023-03-22T11:14:39.691Z,26.88
2023-03-22T11:17:07.142Z,32.90
2023-03-22T11:19:37.357Z,27.67
2023-03-22T11:22:27.069Z,29.73
2023-03-22T11:24:57.476Z,26.27
2023-03-22T11:27:33.626Z,26.15
2023-03-22T11:30:23.351Z,24.90
2023-03-22T11:33:17.076Z,27.50
2023-03-22T11:35:47.214Z,28.00
2023-03-22T11:38:37.049Z,27.77
2023-03-22T11:41:25.145Z,25.67
2023-03-22T11:44:01.869Z,25.13
2023-03-22T11:46:30.498Z,24.85
2023-03-22T11:49:06.017Z,25.55
2023-03-22T11:51:39.302Z,24.05
2023-03-22T11:54:30.817Z,23.58
2023-03-22T11:57:01.538Z,24.63
2023-03-22T11:59:38.195Z,27.77
2023-03-22T12:02:27.049Z,23.73
2023-03-22T12:05:20.888Z,23.70
2023-03-22T12:07:54.068Z,20.95
2023-03-22T12:10:26.716Z,22.05
2023-03-22T12:12:59.800Z,22.45
2023-03-22T12:15:31.993Z,25.02
2023-03-22T12:18:08.508Z,20.02
2023-03-22T12:20:48.475Z,24.73
2023-03-22T12:23:19.363Z,21.23
2023-03-22T12:25:58.630Z,21.23
2023-03-22T12:28:41.140Z,20.65
2023-03-22T12:31:19.713Z,23.55
2023-03-22T12:34:00.160Z,23.40
2023-03-22T12:36:35.775Z,21.25
2023-03-22T12:39:06.583Z,22.70
2023-03-22T12:41:36.040Z,23.88
2023-03-22T12:44:32.507Z,26.10
2023-03-22T12:47:13.086Z,20.13
2023-03-22T12:49:58.778Z,25.15
2023-03-22T12:52:45.686Z,24.33
2023-03-22T12:55:36.814Z,19.63
2023-03-22T12:58:09.551Z,21.98
2023-03-22T13:00:41.070Z,23.52
2023-03-22T13:03:21.051Z,18.67
2023-03-22T13:05:50.342Z,18.42
2023-03-22T13:08:22.615Z,20.02
2023-03-22T13:11:03.936Z,18.85
2023-03-22T13:13:42.519Z,21.88
2023-03-22T13:16:09.870Z,22.75
2023-03-22T13:18:40.721Z,18.55
2023-03-22T13:21:14.599Z,21.42
2023-03-22T13:24:02.601Z,19.70
2023-03-22T13:26:59.159Z,18.95
2023-03-22T13:29:38.293Z,23.95
2023-03-22T13:32:13.794Z,18.02
2023-03-22T13:34:48.330Z,20.17
2023-03-22T13:37:31.294Z,20.67
2023-03-22T13:40:02.300Z,18.88
2023-03-22T13:42:41.298Z,19.25
2023-03-22T13:45:31.546Z,20.65
2023-03-22T13:48:04.915Z,20.13
2023-03-22T13:50:34.557Z,19.77
2023-03-22T13:53:14.865Z,18.20
2023-03-22T13:55:51.989Z,21.20
2023-03-22T13:58:38.872Z,18.63
2023-03-22T14:01:23.060Z,16.73
2023-03-22T14:03:51.365Z,20.00
2023-03-22T14:06:32.006Z,16.42
2023-03-22T14:09:06.251Z,19.02
2023-03-22T14:11:45.466Z,19.70
2023-03-22T14:14:36.676Z,20.67
2023-03-22T14:17:17.128Z,19.48
2023-03-22T14:19:45.002Z,16.17
